createdAt,value
2023-02-04T00:00:17.691Z,-1.10
2023-02-04T00:02:44.814Z,-1.10
2023-02-04T00:05:13.043Z,-1.20
2023-02-04T00:07:41.429Z,-1.10
2023-02-04T00:10:09.914Z,-1.20
2023-02-04T00:12:37.080Z,-1.10
2023-02-04T00:15:05.350Z,-1.10
2023-02-04T00:17:32.351Z,-1.10
2023-02-04T00:19:59.268Z,-1.00
2023-02-04T00:22:28.344Z,-1.10
2023-02-04T00:24:55.418Z,-1.10
2023-02-04T00:27:22.503Z,-1.10
2023-02-04T00:29:49.410Z,-1.00
2023-02-04T00:32:16.433Z,-1.00
2023-02-04T00:34:43.386Z,-1.00
2023-02-04T00:37:10.327Z,-1.00
2023-02-04T00:39:37.252Z,-1.00
2023-02-04T00:42:05.866Z,-1.10
2023-02-04T00:44:32.848Z,-1.00
2023-02-04T00:46:59.883Z,-1.10
2023-02-04T00:49:26.828Z,-1.10
2023-02-04T00:51:53.770Z,-1.10
2023-02-04T00:54:20.751Z,-1.10
2023-02-04T00:56:47.683Z,-1.10
2023-02-04T00:59:14.621Z,-1.10
2023-02-04T01:01:41.639Z,-1.10
2023-02-04T01:04:08.637Z,-1.20
2023-02-04T01:06:35.824Z,-1.20
2023-02-04T01:09:03.882Z,-1.20
2023-02-04T01:11:31.854Z,-1.20
2023-02-04T01:13:59.343Z,-1.20
2023-02-04T01:16:26.659Z,-1.30
2023-02-04T01:18:55.870Z,-1.30
2023-02-04T01:21:28.266Z,-1.30
2023-02-04T01:23:55.249Z,-1.30
2023-02-04T01:26:22.641Z,-1.30
2023-02-04T01:28:50.165Z,-1.30
2023-02-04T01:31:17.496Z,-1.30
2023-02-04T01:33:44.469Z,-1.40
2023-02-04T01:36:11.384Z,-1.40
2023-02-04T01:38:38.384Z,-1.40
2023-02-04T01:41:06.161Z,-1.40
2023-02-04T01:43:34.151Z,-1.40
2023-02-04T01:46:02.660Z,-1.40
2023-02-04T01:48:30.535Z,-1.40
2023-02-04T01:51:08.932Z,-1.40
2023-02-04T01:53:36.994Z,-1.40
2023-02-04T01:56:19.079Z,-1.50
2023-02-04T01:58:47.011Z,-1.40
2023-02-04T02:01:33.650Z,-1.40
2023-02-04T02:04:01.470Z,-1.50
2023-02-04T02:06:29.154Z,-1.40
2023-02-04T02:08:58.347Z,-1.40
2023-02-04T02:11:27.326Z,-1.40
2023-02-04T02:13:54.828Z,-1.40
2023-02-04T02:16:22.329Z,-1.50
2023-02-04T02:18:49.560Z,-1.40
2023-02-04T02:21:21.912Z,-1.40
2023-02-04T02:24:01.132Z,-1.40
2023-02-04T02:26:28.391Z,-1.40
2023-02-04T02:28:55.538Z,-1.40
2023-02-04T02:31:23.738Z,-1.40
2023-02-04T02:33:50.972Z,-1.40
2023-02-04T02:36:18.217Z,-1.30
2023-02-04T02:38:45.280Z,-1.40
2023-02-04T02:41:12.412Z,-1.40
2023-02-04T02:43:40.082Z,-1.40
2023-02-04T02:46:07.333Z,-1.40
2023-02-04T02:48:34.337Z,-1.40
2023-02-04T02:51:01.377Z,-1.30
2023-02-04T02:53:28.544Z,-1.30
2023-02-04T02:55:55.533Z,-1.30
2023-02-04T02:58:29.905Z,-1.30
2023-02-04T03:00:57.545Z,-1.30
2023-02-04T03:03:28.188Z,-1.30
2023-02-04T03:06:11.974Z,-1.40
2023-02-04T03:08:39.980Z,-1.40
2023-02-04T03:11:07.109Z,-1.30
2023-02-04T03:13:34.190Z,-1.30
2023-02-04T03:16:01.442Z,-1.30
2023-02-04T03:18:28.420Z,-1.30
2023-02-04T03:20:56.018Z,-1.30
2023-02-04T03:23:23.152Z,-1.40
2023-02-04T03:25:50.202Z,-1.30
2023-02-04T03:28:17.285Z,-1.40
2023-02-04T03:30:44.384Z,-1.40
2023-02-04T03:33:11.337Z,-1.40
2023-02-04T03:35:38.249Z,-1.50
2023-02-04T03:38:05.149Z,-1.50
2023-02-04T03:40:32.329Z,-1.50
2023-02-04T03:42:59.576Z,-1.50
2023-02-04T03:45:28.533Z,-1.50
2023-02-04T03:47:59.500Z,-1.50
2023-02-04T03:50:26.408Z,-1.50
2023-02-04T03:52:55.648Z,-1.50
2023-02-04T03:55:22.532Z,-1.50
2023-02-04T03:57:49.431Z,-1.50
2023-02-04T04:00:16.502Z,-1.60
2023-02-04T04:02:43.859Z,-1.60
2023-02-04T04:05:11.392Z,-1.60
2023-02-04T04:07:38.395Z,-1.60
2023-02-04T04:10:05.553Z,-1.60
2023-02-04T04:12:33.320Z,-1.60
2023-02-04T04:15:00.240Z,-1.60
2023-02-04T04:17:27.203Z,-1.70
2023-02-04T04:19:54.090Z,-1.80
2023-02-04T04:22:21.287Z,-1.70
2023-02-04T04:24:48.219Z,-1.70
2023-02-04T04:27:15.138Z,-1.70
2023-02-04T04:29:42.036Z,-1.70
2023-02-04T04:32:09.894Z,-1.70
2023-02-04T04:34:37.069Z,-1.80
2023-02-04T04:37:04.084Z,-1.80
2023-02-04T04:39:33.064Z,-1.80
2023-02-04T04:41:59.971Z,-1.80
2023-02-04T04:44:26.933Z,-1.80
2023-02-04T04:46:53.884Z,-1.80
2023-02-04T04:49:20.885Z,-1.80
2023-02-04T04:51:47.781Z,-1.80
2023-02-04T04:54:14.711Z,-1.80
2023-02-04T04:56:41.730Z,-1.80
2023-02-04T04:59:08.891Z,-1.90
2023-02-04T05:01:35.840Z,-1.90
2023-02-04T05:04:04.030Z,-2.00
2023-02-04T05:06:31.031Z,-2.00
2023-02-04T05:08:57.937Z,-2.00
2023-02-04T05:11:24.895Z,-1.90
2023-02-04T05:13:51.874Z,-1.90
2023-02-04T05:16:18.900Z,-1.90
2023-02-04T05:18:45.909Z,-1.90
2023-02-04T05:21:13.063Z,-2.00
2023-02-04T05:23:40.072Z,-2.00
2023-02-04T05:26:06.987Z,-2.00
2023-02-04T05:28:33.900Z,-2.00
2023-02-04T05:31:01.049Z,-1.90
2023-02-04T05:33:27.990Z,-1.90
2023-02-04T05:35:54.893Z,-1.90
2023-02-04T05:38:21.783Z,-2.00
2023-02-04T05:40:48.652Z,-2.00
2023-02-04T05:43:15.592Z,-2.00
2023-02-04T05:45:44.769Z,-1.90
2023-02-04T05:48:11.818Z,-1.90
2023-02-04T05:50:38.724Z,-1.90
2023-02-04T05:53:05.704Z,-1.90
2023-02-04T05:55:32.598Z,-2.00
2023-02-04T05:57:59.510Z,-1.90
2023-02-04T06:00:26.440Z,-2.00
2023-02-04T06:02:53.334Z,-2.00
2023-02-04T06:05:20.274Z,-2.00
2023-02-04T06:07:47.195Z,-1.90
2023-02-04T06:10:14.122Z,-1.90
2023-02-04T06:12:41.000Z,-2.00
2023-02-04T06:15:08.344Z,-2.00
2023-02-04T06:17:35.315Z,-2.00
2023-02-04T06:20:02.287Z,-1.90
2023-02-04T06:22:29.498Z,-2.00
2023-02-04T06:24:56.407Z,-2.00
2023-02-04T06:27:23.532Z,-2.00
2023-02-04T06:29:54.144Z,-2.00
2023-02-04T06:32:21.659Z,-2.00
2023-02-04T06:34:48.963Z,-2.10
2023-02-04T06:37:17.173Z,-2.10
2023-02-04T06:39:44.527Z,-2.10
2023-02-04T06:42:11.519Z,-2.00
2023-02-04T06:44:38.446Z,-2.00
2023-02-04T06:47:05.351Z,-2.00
2023-02-04T06:49:34.420Z,-2.10
2023-02-04T06:52:01.346Z,-2.10
2023-02-04T06:54:28.292Z,-2.10
2023-02-04T06:56:55.257Z,-2.10
2023-02-04T06:59:22.219Z,-2.00
2023-02-04T07:01:49.260Z,-2.10
2023-02-04T07:04:16.179Z,-2.10
2023-02-04T07:06:43.042Z,-2.10
2023-02-04T07:09:09.957Z,-2.10
2023-02-04T07:11:36.901Z,-2.00
2023-02-04T07:14:03.830Z,-2.10
2023-02-04T07:16:30.823Z,-2.10
2023-02-04T07:18:57.775Z,-2.10
2023-02-04T07:21:24.687Z,-2.10
2023-02-04T07:23:51.552Z,-2.10
2023-02-04T07:26:18.471Z,-2.10
2023-02-04T07:28:45.738Z,-2.10
2023-02-04T07:31:12.765Z,-2.10
2023-02-04T07:33:39.783Z,-2.10
2023-02-04T07:36:07.065Z,-2.00
2023-02-04T07:38:34.241Z,-2.00
2023-02-04T07:41:01.129Z,-2.00
2023-02-04T07:43:28.054Z,-2.00
2023-02-04T07:45:55.017Z,-2.00
2023-02-04T07:48:22.035Z,-1.90
2023-02-04T07:50:49.002Z,-1.90
2023-02-04T07:53:15.997Z,-2.00
2023-02-04T07:55:43.629Z,-2.00
2023-02-04T07:58:10.556Z,-2.00
2023-02-04T08:00:37.502Z,-2.00
2023-02-04T08:03:04.510Z,-2.00
2023-02-04T08:05:31.439Z,-2.00
2023-02-04T08:07:58.656Z,-2.00
2023-02-04T08:10:25.594Z,-2.00
2023-02-04T08:12:52.507Z,-2.00
2023-02-04T08:15:19.413Z,-2.00
2023-02-04T08:17:46.330Z,-2.00
2023-02-04T08:20:13.323Z,-1.90
2023-02-04T08:22:40.259Z,-1.90
2023-02-04T08:25:07.459Z,-1.90
2023-02-04T08:27:34.376Z,-1.90
2023-02-04T08:30:01.258Z,-1.90
2023-02-04T08:32:29.298Z,-1.80
2023-02-04T08:34:56.201Z,-1.80
2023-02-04T08:37:23.171Z,-1.80
2023-02-04T08:39:50.319Z,-1.90
2023-02-04T08:42:17.254Z,-1.80
2023-02-04T08:44:44.320Z,-1.80
2023-02-04T08:47:11.565Z,-1.90
2023-02-04T08:49:38.490Z,-1.80
2023-02-04T08:52:06.690Z,-1.80
2023-02-04T08:54:34.323Z,-1.90
2023-02-04T08:57:02.088Z,-1.90
2023-02-04T08:59:29.510Z,-1.80
2023-02-04T09:01:56.498Z,-1.90
2023-02-04T09:04:24.101Z,-1.80
2023-02-04T09:06:52.047Z,-1.80
2023-02-04T09:09:20.472Z,-1.80
2023-02-04T09:11:49.171Z,-1.80
2023-02-04T09:14:16.145Z,-1.80
2023-02-04T09:16:43.129Z,-1.90
2023-02-04T09:19:12.652Z,-1.80
2023-02-04T09:21:39.659Z,-1.80
2023-02-04T09:24:06.625Z,-1.80
2023-02-04T09:26:33.506Z,-1.70
2023-02-04T09:29:00.418Z,-1.70
2023-02-04T09:31:27.354Z,-1.70
2023-02-04T09:33:54.355Z,-1.70
2023-02-04T09:36:21.362Z,-1.60
2023-02-04T09:38:48.242Z,-1.60
2023-02-04T09:41:15.319Z,-1.60
2023-02-04T09:43:45.077Z,-1.50
2023-02-04T09:46:23.826Z,-1.50
2023-02-04T09:48:51.486Z,-1.40
2023-02-04T09:51:26.968Z,-1.40
2023-02-04T09:53:55.877Z,-1.30
2023-02-04T09:56:22.792Z,-1.30
2023-02-04T09:58:50.828Z,-1.20
2023-02-04T10:01:20.073Z,-1.20
2023-02-04T10:03:51.337Z,-1.10
2023-02-04T10:06:20.410Z,-1.00
2023-02-04T10:08:50.049Z,-0.80
2023-02-04T10:11:19.663Z,-0.70
2023-02-04T10:13:52.077Z,-0.70
2023-02-04T10:16:30.250Z,-0.60
2023-02-04T10:19:03.542Z,-0.40
2023-02-04T10:21:32.548Z,-0.30
2023-02-04T10:24:02.663Z,-0.20
2023-02-04T10:26:31.667Z,-0.10
2023-02-04T10:29:14.149Z,-0.10
2023-02-04T10:31:43.358Z,0.00
2023-02-04T10:34:18.907Z,0.10
2023-02-04T10:36:51.235Z,0.10
2023-02-04T10:39:24.474Z,0.10
2023-02-04T10:41:53.791Z,0.20
2023-02-04T10:44:46.149Z,0.30
2023-02-04T10:47:31.544Z,0.30
2023-02-04T10:50:07.621Z,0.50
2023-02-04T10:52:47.345Z,0.60
2023-02-04T10:55:26.176Z,0.70
2023-02-04T10:57:53.752Z,0.70
2023-02-04T11:00:23.238Z,0.90
2023-02-04T11:02:58.988Z,1.00
2023-02-04T11:05:33.818Z,1.00
2023-02-04T11:08:02.015Z,1.00
2023-02-04T11:10:32.750Z,1.10
2023-02-04T11:13:06.261Z,1.20
2023-02-04T11:15:50.776Z,1.40
2023-02-04T11:18:21.115Z,1.40
2023-02-04T11:20:57.675Z,1.50
2023-02-04T11:23:27.565Z,1.50
2023-02-04T11:26:03.739Z,1.60
2023-02-04T11:28:59.349Z,1.60
2023-02-04T11:31:29.053Z,1.80
2023-02-04T11:34:13.048Z,1.90
2023-02-04T11:37:15.151Z,2.00
2023-02-04T11:39:44.968Z,2.10
2023-02-04T11:42:41.935Z,2.20
2023-02-04T11:45:20.635Z,2.30
2023-02-04T11:47:56.580Z,2.50
2023-02-04T11:50:32.583Z,2.60
2023-02-04T11:53:02.063Z,2.60
2023-02-04T11:55:35.163Z,2.80
2023-02-04T11:58:02.158Z,2.80
2023-02-04T12:00:33.537Z,2.90
2023-02-04T12:03:08.373Z,2.90
2023-02-04T12:05:49.598Z,3.10
2023-02-04T12:08:22.361Z,3.10
2023-02-04T12:11:02.841Z,3.10
2023-02-04T12:13:31.131Z,3.10
2023-02-04T12:16:02.353Z,3.30
2023-02-04T12:18:34.018Z,3.40
2023-02-04T12:21:02.012Z,3.50
2023-02-04T12:23:29.989Z,3.70
2023-02-04T12:25:57.552Z,3.80
2023-02-04T12:28:24.928Z,4.00
2023-02-04T12:30:52.012Z,3.90
2023-02-04T12:33:19.087Z,4.00
2023-02-04T12:35:46.250Z,4.10
2023-02-04T12:38:13.169Z,4.20
2023-02-04T12:40:40.639Z,4.20
2023-02-04T12:43:07.658Z,4.30
2023-02-04T12:45:35.037Z,4.40
2023-02-04T12:48:03.038Z,4.40
2023-02-04T12:50:30.036Z,4.40
2023-02-04T12:52:58.652Z,4.30
2023-02-04T12:55:27.507Z,4.30
2023-02-04T12:57:56.191Z,4.30
2023-02-04T13:00:23.366Z,4.10
2023-02-04T13:02:50.788Z,4.20
2023-02-04T13:05:18.552Z,4.10
2023-02-04T13:07:45.503Z,3.90
2023-02-04T13:10:13.948Z,3.90
2023-02-04T13:12:41.002Z,3.70
2023-02-04T13:15:08.891Z,3.70
2023-02-04T13:17:35.837Z,3.50
2023-02-04T13:20:02.880Z,3.50
2023-02-04T13:22:29.748Z,3.40
2023-02-04T13:24:56.677Z,3.50
2023-02-04T13:27:23.592Z,3.50
2023-02-04T13:29:50.478Z,3.60
2023-02-04T13:32:17.440Z,3.50
2023-02-04T13:34:44.303Z,3.50
2023-02-04T13:37:11.251Z,3.50
2023-02-04T13:39:38.180Z,3.40
2023-02-04T13:42:05.123Z,3.30
2023-02-04T13:44:32.003Z,3.30
2023-02-04T13:46:58.927Z,3.30
2023-02-04T13:49:25.870Z,3.10
2023-02-04T13:51:52.766Z,3.00
2023-02-04T13:54:19.689Z,2.90
2023-02-04T13:56:46.668Z,2.80
2023-02-04T13:59:13.580Z,2.60
2023-02-04T14:01:40.498Z,2.40
2023-02-04T14:04:07.518Z,2.30
2023-02-04T14:06:38.147Z,2.20
2023-02-04T14:09:05.189Z,2.10
2023-02-04T14:11:32.161Z,1.90
2023-02-04T14:13:59.064Z,1.80
2023-02-04T14:16:26.082Z,1.70
2023-02-04T14:18:53.147Z,1.70
2023-02-04T14:21:20.142Z,1.50
2023-02-04T14:23:47.038Z,1.40
2023-02-04T14:26:13.924Z,1.30
2023-02-04T14:28:40.886Z,1.30
2023-02-04T14:31:07.839Z,1.10
2023-02-04T14:33:34.759Z,1.00
2023-02-04T14:36:01.704Z,1.00
2023-02-04T14:38:31.072Z,1.00
2023-02-04T14:40:58.784Z,0.90
2023-02-04T14:43:26.655Z,0.80
2023-02-04T14:45:53.854Z,0.80
2023-02-04T14:48:20.814Z,0.70
2023-02-04T14:50:47.728Z,0.70
2023-02-04T14:53:14.668Z,0.70
2023-02-04T14:55:41.576Z,0.60
2023-02-04T14:58:08.538Z,0.50
2023-02-04T15:00:35.670Z,0.50
2023-02-04T15:03:02.645Z,0.40
2023-02-04T15:05:29.574Z,0.30
2023-02-04T15:07:56.523Z,0.30
2023-02-04T15:10:24.750Z,0.30
2023-02-04T15:12:52.491Z,0.30
2023-02-04T15:15:19.600Z,0.10
2023-02-04T15:17:46.623Z,0.00
2023-02-04T15:20:13.629Z,-0.10
2023-02-04T15:22:40.560Z,-0.10
2023-02-04T15:25:07.601Z,-0.20
2023-02-04T15:27:34.473Z,-0.20
2023-02-04T15:30:01.396Z,-0.30
2023-02-04T15:32:28.362Z,-0.30
2023-02-04T15:34:55.259Z,-0.30
2023-02-04T15:37:22.155Z,-0.30
2023-02-04T15:39:49.083Z,-0.30
2023-02-04T15:42:15.989Z,-0.40
2023-02-04T15:44:42.917Z,-0.40
2023-02-04T15:47:09.773Z,-0.50
2023-02-04T15:49:37.757Z,-0.50
2023-02-04T15:52:07.160Z,-0.60
2023-02-04T15:54:38.015Z,-0.60
2023-02-04T15:57:04.956Z,-0.70
2023-02-04T15:59:32.070Z,-0.70
2023-02-04T16:01:59.025Z,-0.80
2023-02-04T16:04:28.109Z,-0.80
2023-02-04T16:06:58.861Z,-0.80
2023-02-04T16:09:26.461Z,-0.90
2023-02-04T16:11:53.384Z,-0.90
2023-02-04T16:14:20.304Z,-0.90
2023-02-04T16:16:47.288Z,-0.90
2023-02-04T16:19:14.236Z,-1.00
2023-02-04T16:21:41.160Z,-1.00
2023-02-04T16:24:08.174Z,-1.00
2023-02-04T16:26:35.187Z,-1.10
2023-02-04T16:29:02.098Z,-1.20
2023-02-04T16:31:29.378Z,-1.20
2023-02-04T16:33:56.424Z,-1.20
2023-02-04T16:36:23.354Z,-1.30
2023-02-04T16:38:50.290Z,-1.30
2023-02-04T16:41:17.272Z,-1.40
2023-02-04T16:43:44.206Z,-1.40
2023-02-04T16:46:12.468Z,-1.50
2023-02-04T16:48:39.492Z,-1.50
2023-02-04T16:51:06.439Z,-1.60
2023-02-04T16:53:33.384Z,-1.70
2023-02-04T16:56:00.435Z,-1.70
2023-02-04T16:58:27.335Z,-1.70
2023-02-04T17:00:54.679Z,-1.70
2023-02-04T17:03:21.625Z,-1.70
2023-02-04T17:05:48.555Z,-1.80
2023-02-04T17:08:17.256Z,-1.80
2023-02-04T17:11:02.696Z,-1.70
2023-02-04T17:13:29.652Z,-1.70
2023-02-04T17:16:00.934Z,-1.80
2023-02-04T17:18:30.172Z,-1.80
2023-02-04T17:20:57.965Z,-1.90
2023-02-04T17:23:25.768Z,-1.90
2023-02-04T17:25:53.024Z,-2.00
2023-02-04T17:28:20.103Z,-2.00
2023-02-04T17:30:47.107Z,-2.00
2023-02-04T17:33:14.030Z,-2.00
2023-02-04T17:35:40.998Z,-2.00
2023-02-04T17:38:07.961Z,-2.00
2023-02-04T17:40:34.868Z,-2.00
2023-02-04T17:43:02.009Z,-2.10
2023-02-04T17:45:28.933Z,-2.10
2023-02-04T17:47:55.837Z,-2.10
2023-02-04T17:50:22.848Z,-2.20
2023-02-04T17:52:52.616Z,-2.20
2023-02-04T17:55:28.531Z,-2.20
2023-02-04T17:57:58.240Z,-2.30
2023-02-04T18:00:29.620Z,-2.30
2023-02-04T18:02:57.242Z,-2.40
2023-02-04T18:05:27.352Z,-2.40
2023-02-04T18:08:01.442Z,-2.40
2023-02-04T18:10:34.138Z,-2.50
2023-02-04T18:13:10.183Z,-2.50
2023-02-04T18:15:37.433Z,-2.60
2023-02-04T18:18:26.737Z,-2.70
2023-02-04T18:21:19.029Z,-2.60
2023-02-04T18:23:46.432Z,-2.80
2023-02-04T18:26:17.884Z,-2.80
2023-02-04T18:28:47.684Z,-2.80
2023-02-04T18:31:35.331Z,-2.80
2023-02-04T18:34:12.936Z,-2.90
2023-02-04T18:36:39.890Z,-2.80
2023-02-04T18:39:18.825Z,-2.80
2023-02-04T18:41:49.488Z,-2.70
2023-02-04T18:44:22.234Z,-2.70
2023-02-04T18:46:49.197Z,-2.70
2023-02-04T18:49:30.073Z,-2.70
2023-02-04T18:51:59.616Z,-2.70
2023-02-04T18:54:34.345Z,-2.70
2023-02-04T18:57:13.648Z,-2.70
2023-02-04T18:59:41.253Z,-2.70
2023-02-04T19:02:36.403Z,-2.80
2023-02-04T19:05:24.339Z,-2.80
2023-02-04T19:07:56.861Z,-2.80
2023-02-04T19:10:28.049Z,-2.80
2023-02-04T19:13:20.250Z,-2.80
2023-02-04T19:15:55.305Z,-2.80
2023-02-04T19:18:37.682Z,-2.80
2023-02-04T19:21:14.551Z,-2.90
2023-02-04T19:23:41.528Z,-3.00
2023-02-04T19:26:33.261Z,-2.90
2023-02-04T19:29:00.944Z,-2.90
2023-02-04T19:31:34.915Z,-3.00
2023-02-04T19:34:20.259Z,-3.00
2023-02-04T19:36:47.142Z,-3.10
2023-02-04T19:39:28.576Z,-3.10
2023-02-04T19:41:57.543Z,-3.10
2023-02-04T19:44:43.959Z,-3.20
2023-02-04T19:47:26.678Z,-3.10
2023-02-04T19:50:12.593Z,-3.20
2023-02-04T19:53:22.390Z,-3.20
2023-02-04T19:55:53.523Z,-3.30
2023-02-04T19:58:42.136Z,-3.20
2023-02-04T20:01:18.020Z,-3.20
2023-02-04T20:03:51.807Z,-3.20
2023-02-04T20:06:26.460Z,-3.20
2023-02-04T20:09:00.707Z,-3.20
2023-02-04T20:11:30.367Z,-3.20
2023-02-04T20:14:10.625Z,-3.10
2023-02-04T20:16:42.981Z,-3.10
2023-02-04T20:19:33.612Z,-3.10
2023-02-04T20:22:18.029Z,-3.10
2023-02-04T20:24:49.499Z,-3.10
2023-02-04T20:27:38.038Z,-3.20
2023-02-04T20:30:08.559Z,-3.20
2023-02-04T20:32:56.411Z,-3.30
2023-02-04T20:35:23.275Z,-3.20
2023-02-04T20:37:53.757Z,-3.20
2023-02-04T20:40:32.433Z,-3.30
2023-02-04T20:43:29.212Z,-3.30
2023-02-04T20:45:59.990Z,-3.30
2023-02-04T20:48:37.743Z,-3.30
2023-02-04T20:51:14.929Z,-3.30
2023-02-04T20:53:59.066Z,-3.30
2023-02-04T20:56:30.268Z,-3.40
2023-02-04T20:59:35.119Z,-3.30
2023-02-04T21:02:14.838Z,-3.40
2023-02-04T21:04:44.016Z,-3.50
2023-02-04T21:07:17.397Z,-3.50
2023-02-04T21:09:44.486Z,-3.50
2023-02-04T21:12:11.768Z,-3.50
2023-02-04T21:14:38.834Z,-3.40
2023-02-04T21:17:06.461Z,-3.50
2023-02-04T21:19:35.206Z,-3.50
2023-02-04T21:22:02.345Z,-3.60
2023-02-04T21:24:31.909Z,-3.60
2023-02-04T21:26:59.189Z,-3.60
2023-02-04T21:29:26.435Z,-3.70
2023-02-04T21:31:54.578Z,-3.70
2023-02-04T21:34:21.693Z,-3.70
2023-02-04T21:36:48.731Z,-3.70
2023-02-04T21:39:15.796Z,-3.80
2023-02-04T21:41:42.732Z,-3.80
2023-02-04T21:44:09.753Z,-3.90
2023-02-04T21:46:36.706Z,-4.00
2023-02-04T21:49:04.947Z,-3.90
2023-02-04T21:51:32.064Z,-4.00
2023-02-04T21:54:00.015Z,-4.00
2023-02-04T21:56:27.018Z,-4.10
2023-02-04T21:58:54.366Z,-4.20
2023-02-04T22:01:21.356Z,-4.30
2023-02-04T22:03:48.417Z,-4.30
2023-02-04T22:06:15.358Z,-4.40
2023-02-04T22:08:42.277Z,-4.30
2023-02-04T22:11:09.167Z,-4.40
2023-02-04T22:13:54.720Z,-4.40
2023-02-04T22:16:21.765Z,-4.40
2023-02-04T22:18:48.702Z,-4.40
2023-02-04T22:21:15.651Z,-4.30
2023-02-04T22:23:42.647Z,-4.30
2023-02-04T22:26:09.535Z,-4.40
2023-02-04T22:28:36.416Z,-4.40
2023-02-04T22:31:03.397Z,-4.50
2023-02-04T22:33:30.358Z,-4.60
2023-02-04T22:35:57.350Z,-4.50
2023-02-04T22:38:24.252Z,-4.60
2023-02-04T22:40:51.189Z,-4.60
2023-02-04T22:43:18.043Z,-4.60
2023-02-04T22:45:44.922Z,-4.50
2023-02-04T22:48:11.816Z,-4.50
2023-02-04T22:50:38.694Z,-4.50
2023-02-04T22:53:05.567Z,-4.40
2023-02-04T22:55:32.781Z,-4.40
2023-02-04T22:57:59.935Z,-4.50
2023-02-04T23:00:26.892Z,-4.40
2023-02-04T23:02:53.837Z,-4.40
2023-02-04T23:05:20.753Z,-4.40
2023-02-04T23:07:47.727Z,-4.40
2023-02-04T23:10:14.765Z,-4.40
2023-02-04T23:12:41.706Z,-4.40
2023-02-04T23:15:11.783Z,-4.50
2023-02-04T23:17:38.689Z,-4.60
2023-02-04T23:20:06.091Z,-4.50
2023-02-04T23:22:33.075Z,-4.60
2023-02-04T23:25:00.062Z,-4.50
2023-02-04T23:27:27.130Z,-4.50
2023-02-04T23:29:54.028Z,-4.50
2023-02-04T23:32:20.950Z,-4.50
2023-02-04T23:34:47.841Z,-4.50
2023-02-04T23:37:14.788Z,-4.50
2023-02-04T23:39:41.696Z,-4.40
2023-02-04T23:42:08.579Z,-4.50
2023-02-04T23:44:35.543Z,-4.50
2023-02-04T23:47:02.735Z,-4.50
2023-02-04T23:49:29.661Z,-4.50
2023-02-04T23:51:56.577Z,-4.50
2023-02-04T23:54:23.719Z,-4.50
2023-02-04T23:56:50.856Z,-4.50
2023-02-04T23:59:17.814Z,-4.50
